createdAt,value
2017-12-25T00:00:52.957Z,9.79
2017-12-25T00:01:52.938Z,9.83
2017-12-25T00:02:52.924Z,9.83
2017-12-25T00:03:52.904Z,9.76
2017-12-25T00:04:52.884Z,9.70
2017-12-25T00:05:52.875Z,9.71
2017-12-25T00:06:52.872Z,9.76
2017-12-25T00:07:52.843Z,9.83
2017-12-25T00:08:52.816Z,9.82
2017-12-25T00:09:52.806Z,9.82
2017-12-25T00:10:52.776Z,9.78
2017-12-25T00:11:52.776Z,9.83
2017-12-25T00:12:52.746Z,9.89
2017-12-25T00:13:52.731Z,9.86
2017-12-25T00:14:52.705Z,9.91
2017-12-25T00:15:52.690Z,9.93
2017-12-25T00:16:52.708Z,9.93
2017-12-25T00:17:52.652Z,9.89
2017-12-25T00:18:52.630Z,9.91
2017-12-25T00:19:52.620Z,9.88
2017-12-25T00:20:52.599Z,9.94
2017-12-25T00:21:52.580Z,9.91
2017-12-25T00:22:52.561Z,9.88
2017-12-25T00:23:52.542Z,9.89
2017-12-25T00:24:52.524Z,9.82
2017-12-25T00:25:52.508Z,9.86
2017-12-25T00:26:52.486Z,9.88
2017-12-25T00:27:52.474Z,9.91
2017-12-25T00:28:52.452Z,9.89
2017-12-25T00:29:52.434Z,9.83
2017-12-25T00:30:52.411Z,9.85
2017-12-25T00:31:52.398Z,9.88
2017-12-25T00:32:52.379Z,9.85
2017-12-25T00:33:52.357Z,9.81
2017-12-25T00:34:52.346Z,9.79
2017-12-25T00:35:52.322Z,9.83
2017-12-25T00:36:52.307Z,9.88
2017-12-25T00:37:52.289Z,9.82
2017-12-25T00:38:52.270Z,9.93
2017-12-25T00:39:52.254Z,9.88
2017-12-25T00:40:52.253Z,9.86
2017-12-25T00:41:52.214Z,9.86
2017-12-25T00:42:52.198Z,9.79
2017-12-25T00:43:52.185Z,9.82
2017-12-25T00:44:52.176Z,9.78
2017-12-25T00:45:52.148Z,9.76
2017-12-25T00:46:52.123Z,9.81
2017-12-25T00:47:52.107Z,9.70
2017-12-25T00:48:52.104Z,9.68
2017-12-25T00:49:52.071Z,9.73
2017-12-25T00:50:52.054Z,9.71
2017-12-25T00:51:52.035Z,9.75
2017-12-25T00:52:52.025Z,9.75
2017-12-25T00:53:52.010Z,9.73
2017-12-25T00:54:52.005Z,9.70
2017-12-25T00:55:51.960Z,9.66
2017-12-25T00:56:51.947Z,9.76
2017-12-25T00:57:52.040Z,9.78
2017-12-25T00:58:51.910Z,9.66
2017-12-25T00:59:51.888Z,9.67
2017-12-25T01:00:51.871Z,9.66
2017-12-25T01:01:51.857Z,9.66
2017-12-25T01:02:51.835Z,9.66
2017-12-25T01:03:51.813Z,9.61
2017-12-25T01:04:51.808Z,9.61
2017-12-25T01:05:51.781Z,9.58
2017-12-25T01:06:51.764Z,9.58
2017-12-25T01:07:51.740Z,9.58
2017-12-25T01:08:51.742Z,9.57
2017-12-25T01:09:51.727Z,9.56
2017-12-25T01:10:51.700Z,9.58
2017-12-25T01:11:51.667Z,9.58
2017-12-25T01:12:51.670Z,9.63
2017-12-25T01:13:51.634Z,9.68
2017-12-25T01:14:51.619Z,9.63
2017-12-25T01:15:51.594Z,9.60
2017-12-25T01:16:51.580Z,9.66
2017-12-25T01:17:51.560Z,9.60
2017-12-25T01:18:51.544Z,9.64
2017-12-25T01:19:51.527Z,9.58
2017-12-25T01:20:51.508Z,9.64
2017-12-25T01:21:51.490Z,9.64
2017-12-25T01:22:51.499Z,9.64
2017-12-25T01:23:51.447Z,9.67
2017-12-25T01:24:51.436Z,9.66
2017-12-25T01:25:51.416Z,9.68
2017-12-25T01:26:51.397Z,9.68
2017-12-25T01:27:51.373Z,9.73
2017-12-25T01:28:51.357Z,9.73
2017-12-25T01:29:51.347Z,9.81
2017-12-25T01:30:51.326Z,9.73
2017-12-25T01:31:51.309Z,9.71
2017-12-25T01:32:51.288Z,9.71
2017-12-25T01:33:51.271Z,9.75
2017-12-25T01:34:51.252Z,9.71
2017-12-25T01:35:51.234Z,9.83
2017-12-25T01:36:51.216Z,9.70
2017-12-25T01:37:51.208Z,9.68
2017-12-25T01:38:51.178Z,9.76
2017-12-25T01:39:51.182Z,9.68
2017-12-25T01:40:51.140Z,9.68
2017-12-25T01:41:51.136Z,9.75
2017-12-25T01:42:51.108Z,9.70
2017-12-25T01:43:51.092Z,9.70
2017-12-25T01:44:51.067Z,9.70
2017-12-25T01:45:51.061Z,9.81
2017-12-25T01:46:51.030Z,9.82
2017-12-25T01:47:51.022Z,9.85
2017-12-25T01:48:50.994Z,9.82
2017-12-25T01:49:50.985Z,9.82
2017-12-25T01:50:50.980Z,9.85
2017-12-25T01:51:50.946Z,9.85
2017-12-25T01:52:50.926Z,9.86
2017-12-25T01:53:50.907Z,9.93
2017-12-25T01:54:50.889Z,9.78
2017-12-25T01:55:50.873Z,9.86
2017-12-25T01:56:50.847Z,9.82
2017-12-25T01:57:50.837Z,9.86
2017-12-25T01:58:50.816Z,9.78
2017-12-25T01:59:50.796Z,9.81
2017-12-25T02:00:50.775Z,9.78
2017-12-25T02:01:50.762Z,9.78
2017-12-25T02:02:50.754Z,9.85
2017-12-25T02:03:50.728Z,9.88
2017-12-25T02:04:50.712Z,9.82
2017-12-25T02:05:50.690Z,9.82
2017-12-25T02:06:50.672Z,9.78
2017-12-25T02:07:50.653Z,9.82
2017-12-25T02:08:50.635Z,9.88
2017-12-25T02:09:50.619Z,9.85
2017-12-25T02:10:50.596Z,9.79
2017-12-25T02:11:50.582Z,9.82
2017-12-25T02:12:50.561Z,9.79
2017-12-25T02:13:50.544Z,9.76
2017-12-25T02:14:50.526Z,9.78
2017-12-25T02:15:50.506Z,9.79
2017-12-25T02:16:50.482Z,9.78
2017-12-25T02:17:50.472Z,9.86
2017-12-25T02:18:50.453Z,9.79
2017-12-25T02:19:50.437Z,9.78
2017-12-25T02:20:50.442Z,9.82
2017-12-25T02:21:50.400Z,9.78
2017-12-25T02:22:50.380Z,9.79
2017-12-25T02:23:50.373Z,9.81
2017-12-25T02:24:50.347Z,9.89
2017-12-25T02:25:50.326Z,9.88
2017-12-25T02:26:50.309Z,9.85
2017-12-25T02:27:50.299Z,9.86
2017-12-25T02:28:50.308Z,9.82
2017-12-25T02:29:50.258Z,9.78
2017-12-25T02:30:50.240Z,9.82
2017-12-25T02:31:50.241Z,9.83
2017-12-25T02:32:50.202Z,9.85
2017-12-25T02:33:50.179Z,9.81
2017-12-25T02:34:50.167Z,9.91
2017-12-25T02:35:50.148Z,9.79
2017-12-25T02:36:50.127Z,9.82
2017-12-25T02:37:50.109Z,9.81
2017-12-25T02:38:50.359Z,9.73
2017-12-25T02:39:50.075Z,9.73
2017-12-25T02:40:50.054Z,9.71
2017-12-25T02:41:50.032Z,9.79
2017-12-25T02:42:50.027Z,9.68
2017-12-25T02:43:50.000Z,9.73
2017-12-25T02:44:49.980Z,9.73
2017-12-25T02:45:49.967Z,9.66
2017-12-25T02:46:49.945Z,9.73
2017-12-25T02:47:49.926Z,9.70
2017-12-25T02:48:49.909Z,9.83
2017-12-25T02:49:49.893Z,9.75
2017-12-25T02:50:49.872Z,9.79
2017-12-25T02:51:49.853Z,9.82
2017-12-25T02:52:49.834Z,9.75
2017-12-25T02:53:49.824Z,9.82
2017-12-25T02:54:49.799Z,9.78
2017-12-25T02:55:49.779Z,9.82
2017-12-25T02:56:49.765Z,9.67
2017-12-25T02:57:49.749Z,9.73
2017-12-25T02:58:49.727Z,9.67
2017-12-25T02:59:49.707Z,9.68
2017-12-25T03:00:49.692Z,9.64
2017-12-25T03:01:49.683Z,9.60
2017-12-25T03:02:49.654Z,9.64
2017-12-25T03:03:49.634Z,9.60
2017-12-25T03:04:49.625Z,9.67
2017-12-25T03:05:49.604Z,9.64
2017-12-25T03:06:49.580Z,9.70
2017-12-25T03:07:49.566Z,9.67
2017-12-25T03:08:49.546Z,9.63
2017-12-25T03:09:49.543Z,9.63
2017-12-25T03:10:49.506Z,9.71
2017-12-25T03:11:49.490Z,9.68
2017-12-25T03:12:49.473Z,9.68
2017-12-25T03:13:49.459Z,9.58
2017-12-25T03:14:49.432Z,9.64
2017-12-25T03:15:49.420Z,9.63
2017-12-25T03:16:49.402Z,9.58
2017-12-25T03:17:49.380Z,9.60
2017-12-25T03:18:49.358Z,9.64
2017-12-25T03:19:49.344Z,9.68
2017-12-25T03:20:49.326Z,9.61
2017-12-25T03:21:49.310Z,9.57
2017-12-25T03:22:49.288Z,9.56
2017-12-25T03:23:49.270Z,9.68
2017-12-25T03:24:49.251Z,9.60
2017-12-25T03:25:49.241Z,9.58
2017-12-25T03:26:49.217Z,9.60
2017-12-25T03:27:49.197Z,9.66
2017-12-25T03:28:49.176Z,9.52
2017-12-25T03:29:49.162Z,9.53
2017-12-25T03:30:49.154Z,9.57
2017-12-25T03:31:49.122Z,9.48
2017-12-25T03:32:49.104Z,9.48
2017-12-25T03:33:49.101Z,9.60
2017-12-25T03:34:49.063Z,9.57
2017-12-25T03:35:49.048Z,9.58
2017-12-25T03:36:49.027Z,9.60
2017-12-25T03:37:49.012Z,9.58
2017-12-25T03:38:48.996Z,9.61
2017-12-25T03:39:48.980Z,9.57
2017-12-25T03:40:48.952Z,9.61
2017-12-25T03:41:48.944Z,9.60
2017-12-25T03:42:48.922Z,9.63
2017-12-25T03:43:48.917Z,9.50
2017-12-25T03:44:48.885Z,9.49
2017-12-25T03:45:48.871Z,9.63
2017-12-25T03:46:48.850Z,9.58
2017-12-25T03:47:48.827Z,9.58
2017-12-25T03:48:48.814Z,9.50
2017-12-25T03:49:48.801Z,9.56
2017-12-25T03:50:48.775Z,9.57
2017-12-25T03:51:48.755Z,9.60
2017-12-25T03:52:48.779Z,9.60
2017-12-25T03:53:48.720Z,9.52
2017-12-25T03:54:48.708Z,9.52
2017-12-25T03:55:48.688Z,9.58
2017-12-25T03:56:48.670Z,9.61
2017-12-25T03:57:48.646Z,9.63
2017-12-25T03:58:48.623Z,9.63
2017-12-25T03:59:48.613Z,9.60
2017-12-25T04:00:48.594Z,9.52
2017-12-25T04:01:48.570Z,9.48
2017-12-25T04:02:48.560Z,9.45
2017-12-25T04:03:48.537Z,9.45
2017-12-25T04:04:48.523Z,9.56
2017-12-25T04:05:48.503Z,9.49
2017-12-25T04:06:48.483Z,9.46
2017-12-25T04:07:48.460Z,9.52
2017-12-25T04:08:48.449Z,9.60
2017-12-25T04:09:48.438Z,9.49
2017-12-25T04:10:48.412Z,9.57
2017-12-25T04:11:48.390Z,9.48
2017-12-25T04:12:48.379Z,9.56
2017-12-25T04:13:48.357Z,9.53
2017-12-25T04:14:48.335Z,9.52
2017-12-25T04:15:48.321Z,9.56
2017-12-25T04:16:48.304Z,9.52
2017-12-25T04:17:48.305Z,9.52
2017-12-25T04:18:48.265Z,9.42
2017-12-25T04:19:48.240Z,9.46
2017-12-25T04:20:48.239Z,9.43
2017-12-25T04:21:48.209Z,9.50
2017-12-25T04:22:48.191Z,9.49
2017-12-25T04:23:48.170Z,9.42
2017-12-25T04:24:48.159Z,9.42
2017-12-25T04:25:48.136Z,9.43
2017-12-25T04:26:48.115Z,9.42
2017-12-25T04:27:48.096Z,9.48
2017-12-25T04:28:48.081Z,9.42
2017-12-25T04:29:48.071Z,9.50
2017-12-25T04:30:48.041Z,9.48
2017-12-25T04:31:48.025Z,9.45
2017-12-25T04:32:48.006Z,9.49
2017-12-25T04:33:48.044Z,9.64
2017-12-25T04:34:47.971Z,9.53
2017-12-25T04:35:47.949Z,9.63
2017-12-25T04:36:47.932Z,9.58
2017-12-25T04:37:47.916Z,9.53
2017-12-25T04:38:47.898Z,9.56
2017-12-25T04:39:47.882Z,9.43
2017-12-25T04:40:47.861Z,9.49
2017-12-25T04:41:47.843Z,9.48
2017-12-25T04:42:47.825Z,9.46
2017-12-25T04:43:47.810Z,9.48
2017-12-25T04:44:47.793Z,9.46
2017-12-25T04:45:47.774Z,9.49
2017-12-25T04:46:47.806Z,9.57
2017-12-25T04:47:47.738Z,9.48
2017-12-25T04:48:47.716Z,9.50
2017-12-25T04:49:47.699Z,9.49
2017-12-25T04:50:47.679Z,9.52
2017-12-25T04:51:47.661Z,9.46
2017-12-25T04:52:47.642Z,9.35
2017-12-25T04:53:47.624Z,9.42
2017-12-25T04:54:47.605Z,9.49
2017-12-25T04:55:47.612Z,9.52
2017-12-25T04:56:47.568Z,9.53
2017-12-25T04:57:47.562Z,9.60
2017-12-25T04:58:47.537Z,9.56
2017-12-25T04:59:47.510Z,9.50
2017-12-25T05:00:47.554Z,9.57
2017-12-25T05:01:47.534Z,9.56
2017-12-25T05:02:47.462Z,9.53
2017-12-25T05:03:47.471Z,9.46
2017-12-25T05:04:47.434Z,9.45
2017-12-25T05:05:47.402Z,9.48
2017-12-25T05:06:47.393Z,9.43
2017-12-25T05:07:47.370Z,9.42
2017-12-25T05:08:47.376Z,9.42
2017-12-25T05:09:47.345Z,9.46
2017-12-25T05:10:47.310Z,9.45
2017-12-25T05:11:47.302Z,9.39
2017-12-25T05:12:47.283Z,9.45
2017-12-25T05:13:47.267Z,9.42
2017-12-25T05:14:47.248Z,9.45
2017-12-25T05:15:47.223Z,9.53
2017-12-25T05:16:47.243Z,9.35
2017-12-25T05:17:47.192Z,9.40
2017-12-25T05:18:47.162Z,9.43
2017-12-25T05:19:47.151Z,9.45
2017-12-25T05:20:47.146Z,9.45
2017-12-25T05:21:47.136Z,9.46
2017-12-25T05:22:47.092Z,9.43
2017-12-25T05:23:47.083Z,9.43
2017-12-25T05:24:47.064Z,9.48
2017-12-25T05:25:47.043Z,9.35
2017-12-25T05:26:47.021Z,9.52
2017-12-25T05:27:47.006Z,9.56
2017-12-25T05:28:47.027Z,9.53
2017-12-25T05:29:46.970Z,9.58
2017-12-25T05:30:46.947Z,9.46
2017-12-25T05:31:46.950Z,9.50
2017-12-25T05:32:46.930Z,9.46
2017-12-25T05:33:46.907Z,9.58
2017-12-25T05:34:46.873Z,9.53
2017-12-25T05:35:46.850Z,9.50
2017-12-25T05:36:46.835Z,9.53
2017-12-25T05:37:46.817Z,9.46
2017-12-25T05:38:46.853Z,9.56
2017-12-25T05:39:46.788Z,9.52
2017-12-25T05:40:46.807Z,9.39
2017-12-25T05:41:46.745Z,9.40
2017-12-25T05:42:46.725Z,9.58
2017-12-25T05:43:46.726Z,9.52
2017-12-25T05:44:46.703Z,9.40
2017-12-25T05:45:46.685Z,9.52
2017-12-25T05:46:46.646Z,9.43
2017-12-25T05:47:46.642Z,9.38
2017-12-25T05:48:46.641Z,9.46
2017-12-25T05:49:46.633Z,9.48
2017-12-25T05:50:46.578Z,9.50
2017-12-25T05:51:46.559Z,9.46
2017-12-25T05:52:46.552Z,9.50
2017-12-25T05:53:46.534Z,9.43
2017-12-25T05:54:46.505Z,9.45
2017-12-25T05:55:46.500Z,9.46
2017-12-25T05:56:46.483Z,9.43
2017-12-25T05:57:46.458Z,9.46
2017-12-25T05:58:46.442Z,9.53
2017-12-25T05:59:46.423Z,9.39
2017-12-25T06:00:46.420Z,9.35
2017-12-25T06:01:46.409Z,9.52
2017-12-25T06:02:46.365Z,9.40
2017-12-25T06:03:46.337Z,9.42
2017-12-25T06:04:46.327Z,9.48
2017-12-25T06:05:46.303Z,9.45
2017-12-25T06:06:46.303Z,9.49
2017-12-25T06:07:46.279Z,9.38
2017-12-25T06:08:46.264Z,9.45
2017-12-25T06:09:46.242Z,9.39
2017-12-25T06:10:46.237Z,9.42
2017-12-25T06:11:46.230Z,9.42
2017-12-25T06:12:46.184Z,9.40
2017-12-25T06:13:46.196Z,9.42
2017-12-25T06:14:46.151Z,9.48
2017-12-25T06:15:46.158Z,9.48
2017-12-25T06:16:46.097Z,9.27
2017-12-25T06:17:46.097Z,9.32
2017-12-25T06:18:46.088Z,9.38
2017-12-25T06:19:46.050Z,9.32
2017-12-25T06:20:46.030Z,9.30
2017-12-25T06:21:46.023Z,9.31
2017-12-25T06:22:46.003Z,9.32
2017-12-25T06:23:45.969Z,9.38
2017-12-25T06:24:45.961Z,9.24
2017-12-25T06:25:45.957Z,9.23
2017-12-25T06:26:45.957Z,9.30
2017-12-25T06:27:45.900Z,9.27
2017-12-25T06:28:45.889Z,9.30
2017-12-25T06:29:45.884Z,9.38
2017-12-25T06:30:45.874Z,9.30
2017-12-25T06:31:45.820Z,9.27
2017-12-25T06:32:45.818Z,9.32
2017-12-25T06:33:45.797Z,9.35
2017-12-25T06:34:45.771Z,9.27
2017-12-25T06:35:45.784Z,9.25
2017-12-25T06:36:45.735Z,9.32
2017-12-25T06:37:45.722Z,9.30
2017-12-25T06:38:45.728Z,9.24
2017-12-25T06:39:45.688Z,9.23
2017-12-25T06:40:45.664Z,9.28
2017-12-25T06:41:45.647Z,9.28
2017-12-25T06:42:45.632Z,9.23
2017-12-25T06:43:45.603Z,9.27
2017-12-25T06:44:45.610Z,9.31
2017-12-25T06:45:45.581Z,9.27
2017-12-25T06:46:45.556Z,9.28
2017-12-25T06:47:45.532Z,9.28
2017-12-25T06:48:45.523Z,9.25
2017-12-25T06:49:45.504Z,9.25
2017-12-25T06:50:45.477Z,9.25
2017-12-25T06:51:45.454Z,9.25
2017-12-25T06:52:45.429Z,9.28
2017-12-25T06:53:45.429Z,9.28
2017-12-25T06:54:45.407Z,9.30
2017-12-25T06:55:45.372Z,9.34
2017-12-25T06:56:45.364Z,9.34
2017-12-25T06:57:45.357Z,9.28
2017-12-25T06:58:45.331Z,9.32
2017-12-25T06:59:45.309Z,9.28
2017-12-25T07:00:45.286Z,9.35
2017-12-25T07:01:45.308Z,9.32
2017-12-25T07:02:45.263Z,9.43
2017-12-25T07:03:45.234Z,9.45
2017-12-25T07:04:45.210Z,9.32
2017-12-25T07:05:45.204Z,9.38
2017-12-25T07:06:45.200Z,9.32
2017-12-25T07:07:45.190Z,9.40
2017-12-25T07:08:45.144Z,9.30
2017-12-25T07:09:45.138Z,9.34
2017-12-25T07:10:45.112Z,9.28
2017-12-25T07:11:45.090Z,9.30
2017-12-25T07:12:45.077Z,9.28
2017-12-25T07:13:45.064Z,9.30
2017-12-25T07:14:45.039Z,9.28
2017-12-25T07:15:45.012Z,9.32
2017-12-25T07:16:45.020Z,9.21
2017-12-25T07:17:44.980Z,9.25
2017-12-25T07:18:44.982Z,9.28
2017-12-25T07:19:44.962Z,9.23
2017-12-25T07:20:44.915Z,9.24
2017-12-25T07:21:44.908Z,9.25
2017-12-25T07:22:44.910Z,9.21
2017-12-25T07:23:44.861Z,9.25
2017-12-25T07:24:44.847Z,9.25
2017-12-25T07:25:44.834Z,9.24
2017-12-25T07:26:44.832Z,9.28
2017-12-25T07:27:44.814Z,9.28
2017-12-25T07:28:44.777Z,9.30
2017-12-25T07:29:44.761Z,9.23
2017-12-25T07:30:44.756Z,9.30
2017-12-25T07:31:44.712Z,9.27
2017-12-25T07:32:44.718Z,9.32
2017-12-25T07:33:44.687Z,9.25
2017-12-25T07:34:44.669Z,9.24
2017-12-25T07:35:44.649Z,9.30
2017-12-25T07:36:44.638Z,9.23
2017-12-25T07:37:44.614Z,9.23
2017-12-25T07:38:44.593Z,9.15
2017-12-25T07:39:44.587Z,9.23
2017-12-25T07:40:44.570Z,9.23
2017-12-25T07:41:44.525Z,9.27
2017-12-25T07:42:44.506Z,9.20
2017-12-25T07:43:44.504Z,9.25
2017-12-25T07:44:44.481Z,9.21
2017-12-25T07:45:44.477Z,9.13
2017-12-25T07:46:44.439Z,9.12
2017-12-25T07:47:44.423Z,9.10
2017-12-25T07:48:44.402Z,9.12
2017-12-25T07:49:44.401Z,9.10
2017-12-25T07:50:44.377Z,9.13
2017-12-25T07:51:44.339Z,9.15
2017-12-25T07:52:44.333Z,9.06
2017-12-25T07:53:44.310Z,9.21
2017-12-25T07:54:44.287Z,9.16
2017-12-25T07:55:44.281Z,9.02
2017-12-25T07:56:44.313Z,9.05
2017-12-25T07:57:44.241Z,9.10
2017-12-25T07:58:44.212Z,9.06
2017-12-25T07:59:44.223Z,9.05
2017-12-25T08:00:44.172Z,9.16
2017-12-25T08:01:44.170Z,9.16
2017-12-25T08:02:44.146Z,9.18
2017-12-25T08:03:44.127Z,9.09
2017-12-25T08:04:44.104Z,9.13
2017-12-25T08:05:44.088Z,9.18
2017-12-25T08:06:44.092Z,9.06
2017-12-25T08:07:44.078Z,9.20
2017-12-25T08:08:44.031Z,9.10
2017-12-25T08:09:44.030Z,9.13
2017-12-25T08:10:43.996Z,9.13
2017-12-25T08:11:43.986Z,9.10
2017-12-25T08:12:43.957Z,9.12
2017-12-25T08:13:43.935Z,9.30
2017-12-25T08:14:43.928Z,9.23
2017-12-25T08:15:43.960Z,9.27
2017-12-25T08:16:43.884Z,9.27
2017-12-25T08:17:43.888Z,9.20
2017-12-25T08:18:43.855Z,9.28
2017-12-25T08:19:43.829Z,9.25
2017-12-25T08:20:43.815Z,9.25
2017-12-25T08:21:43.793Z,9.38
2017-12-25T08:22:43.797Z,9.35
2017-12-25T08:23:43.756Z,9.45
2017-12-25T08:24:43.733Z,9.39
2017-12-25T08:25:43.724Z,9.42
2017-12-25T08:26:43.704Z,9.39
2017-12-25T08:27:43.675Z,9.38
2017-12-25T08:28:43.652Z,9.45
2017-12-25T08:29:43.636Z,9.38
2017-12-25T08:30:43.630Z,9.35
2017-12-25T08:31:43.602Z,9.40
2017-12-25T08:32:43.586Z,9.46
2017-12-25T08:33:43.575Z,9.43
2017-12-25T08:34:43.550Z,9.39
2017-12-25T08:35:43.537Z,9.50
2017-12-25T08:36:43.508Z,9.40
2017-12-25T08:37:43.503Z,9.50
2017-12-25T08:38:43.480Z,9.50
2017-12-25T08:39:43.458Z,9.45
2017-12-25T08:40:43.441Z,9.56
2017-12-25T08:41:43.413Z,9.58
2017-12-25T08:42:43.418Z,9.53
2017-12-25T08:43:43.411Z,9.60
2017-12-25T08:44:43.371Z,9.57
2017-12-25T08:45:43.345Z,9.53
2017-12-25T08:46:43.335Z,9.61
2017-12-25T08:47:43.343Z,9.64
2017-12-25T08:48:43.314Z,9.60
2017-12-25T08:49:43.274Z,9.60
2017-12-25T08:50:43.261Z,9.64
2017-12-25T08:51:43.251Z,9.66
2017-12-25T08:52:43.224Z,9.61
2017-12-25T08:53:43.205Z,9.60
2017-12-25T08:54:43.202Z,9.58
2017-12-25T08:55:43.195Z,9.60
2017-12-25T08:56:43.152Z,9.56
2017-12-25T08:57:43.125Z,9.57
2017-12-25T08:58:43.123Z,9.61
2017-12-25T08:59:43.084Z,9.61
2017-12-25T09:00:43.068Z,9.63
2017-12-25T09:01:43.040Z,9.61
2017-12-25T09:02:43.036Z,9.71
2017-12-25T09:03:43.025Z,9.68
2017-12-25T09:04:42.993Z,9.64
2017-12-25T09:05:43.002Z,9.71
2017-12-25T09:06:42.964Z,9.71
2017-12-25T09:07:42.965Z,9.70
2017-12-25T09:08:42.934Z,9.68
2017-12-25T09:09:42.898Z,9.66
2017-12-25T09:10:42.885Z,9.70
2017-12-25T09:11:42.871Z,9.71
2017-12-25T09:12:42.879Z,9.79
2017-12-25T09:13:42.822Z,9.76
2017-12-25T09:14:42.827Z,9.78
2017-12-25T09:15:42.805Z,9.78
2017-12-25T09:16:42.809Z,9.82
2017-12-25T09:17:42.802Z,9.82
2017-12-25T09:18:42.752Z,9.79
2017-12-25T09:19:42.748Z,9.85
2017-12-25T09:20:42.753Z,9.82
2017-12-25T09:21:42.680Z,9.78
2017-12-25T09:22:42.687Z,9.71
2017-12-25T09:23:42.677Z,9.76
2017-12-25T09:24:42.632Z,9.66
2017-12-25T09:25:42.601Z,9.71
2017-12-25T09:26:42.602Z,9.66
2017-12-25T09:27:42.578Z,9.76
2017-12-25T09:28:42.556Z,9.79
2017-12-25T09:29:42.543Z,9.81
2017-12-25T09:30:42.527Z,9.93
2017-12-25T09:31:42.514Z,9.89
2017-12-25T09:32:42.479Z,9.83
2017-12-25T09:33:42.463Z,9.81
2017-12-25T09:34:42.441Z,9.83
2017-12-25T09:35:42.433Z,9.86
2017-12-25T09:36:42.433Z,9.88
2017-12-25T09:37:42.386Z,9.89
2017-12-25T09:38:42.369Z,9.83
2017-12-25T09:39:42.360Z,9.94
2017-12-25T09:40:42.347Z,9.88
2017-12-25T09:41:42.325Z,9.82
2017-12-25T09:42:42.308Z,9.83
2017-12-25T09:43:42.292Z,9.89
2017-12-25T09:44:42.277Z,9.89
2017-12-25T09:45:42.245Z,9.83
2017-12-25T09:46:42.250Z,9.86
2017-12-25T09:47:42.225Z,9.88
2017-12-25T09:48:42.201Z,9.88
2017-12-25T09:49:42.202Z,9.91
2017-12-25T09:50:42.156Z,9.96
2017-12-25T09:51:42.152Z,9.91
2017-12-25T09:52:42.144Z,9.89
2017-12-25T09:53:42.111Z,9.99
2017-12-25T09:54:42.101Z,9.91
2017-12-25T09:55:42.122Z,9.99
2017-12-25T09:56:42.097Z,10.06
2017-12-25T09:57:42.025Z,10.09
2017-12-25T09:58:42.025Z,10.01
2017-12-25T09:59:41.995Z,9.93
2017-12-25T10:00:41.994Z,9.93
2017-12-25T10:01:41.976Z,9.97
2017-12-25T10:02:41.957Z,10.04
2017-12-25T10:03:41.927Z,10.01
2017-12-25T10:04:41.974Z,9.96
2017-12-25T10:05:41.933Z,9.99
2017-12-25T10:06:41.865Z,10.00
2017-12-25T10:07:41.851Z,9.91
2017-12-25T10:08:41.841Z,10.03
2017-12-25T10:09:41.827Z,10.00
2017-12-25T10:10:41.792Z,9.94
2017-12-25T10:11:41.771Z,9.99
2017-12-25T10:12:41.774Z,10.07
2017-12-25T10:13:41.757Z,10.06
2017-12-25T10:14:41.759Z,10.01
2017-12-25T10:15:41.718Z,10.01
2017-12-25T10:16:41.713Z,10.01
2017-12-25T10:17:41.693Z,10.09
2017-12-25T10:18:41.643Z,10.01
2017-12-25T10:19:41.633Z,10.03
2017-12-25T10:20:41.647Z,10.01
2017-12-25T10:21:41.614Z,10.06
2017-12-25T10:22:41.576Z,10.07
2017-12-25T10:23:41.565Z,10.03
2017-12-25T10:24:41.546Z,10.04
2017-12-25T10:25:41.547Z,9.93
2017-12-25T10:26:41.520Z,9.99
2017-12-25T10:27:41.509Z,9.96
2017-12-25T10:28:41.507Z,10.06
2017-12-25T10:29:41.476Z,9.85
2017-12-25T10:30:41.431Z,9.88
2017-12-25T10:31:41.428Z,9.85
2017-12-25T10:32:41.402Z,9.86
2017-12-25T10:33:41.434Z,9.78
2017-12-25T10:34:41.373Z,9.91
2017-12-25T10:35:41.345Z,9.83
2017-12-25T10:36:41.335Z,9.85
2017-12-25T10:37:41.329Z,9.96
2017-12-25T10:38:41.320Z,9.91
2017-12-25T10:39:41.278Z,9.94
2017-12-25T10:40:41.252Z,9.99
2017-12-25T10:41:41.240Z,9.94
2017-12-25T10:42:41.220Z,10.10
2017-12-25T10:43:41.199Z,10.01
2017-12-25T10:44:41.189Z,9.91
2017-12-25T10:45:41.167Z,9.93
2017-12-25T10:46:41.149Z,9.89
2017-12-25T10:47:41.174Z,9.81
2017-12-25T10:48:41.115Z,9.83
2017-12-25T10:49:41.091Z,9.88
2017-12-25T10:50:41.094Z,9.86
2017-12-25T10:51:41.064Z,9.88
2017-12-25T10:52:41.036Z,9.94
2017-12-25T10:53:41.035Z,9.93
2017-12-25T10:54:41.014Z,9.97
2017-12-25T10:55:41.070Z,9.89
2017-12-25T10:56:40.977Z,9.97
2017-12-25T10:57:40.955Z,9.94
2017-12-25T10:58:40.946Z,9.91
2017-12-25T10:59:40.917Z,10.04
2017-12-25T11:00:40.903Z,10.07
2017-12-25T11:01:40.877Z,10.03
2017-12-25T11:02:40.877Z,10.07
2017-12-25T11:03:40.848Z,10.03
2017-12-25T11:04:40.829Z,10.07
2017-12-25T11:05:40.811Z,10.06
2017-12-25T11:06:40.802Z,10.06
2017-12-25T11:07:40.776Z,10.10
2017-12-25T11:08:40.757Z,10.15
2017-12-25T11:09:40.749Z,10.14
2017-12-25T11:10:40.721Z,10.07
2017-12-25T11:11:40.704Z,10.18
2017-12-25T11:12:40.762Z,10.14
2017-12-25T11:13:40.662Z,10.10
2017-12-25T11:14:40.672Z,10.09
2017-12-25T11:15:40.632Z,10.00
2017-12-25T11:16:40.620Z,10.09
2017-12-25T11:17:40.606Z,10.07
2017-12-25T11:18:40.588Z,10.06
2017-12-25T11:19:40.570Z,10.10
2017-12-25T11:20:40.610Z,10.07
2017-12-25T11:21:40.525Z,10.09
2017-12-25T11:22:40.507Z,10.07
2017-12-25T11:23:40.480Z,10.01
2017-12-25T11:24:40.468Z,9.97
2017-12-25T11:25:40.464Z,10.04
2017-12-25T11:26:40.438Z,10.09
2017-12-25T11:27:40.440Z,10.10
2017-12-25T11:28:40.425Z,10.19
2017-12-25T11:29:40.393Z,10.19
2017-12-25T11:30:40.372Z,10.24
2017-12-25T11:31:40.351Z,10.26
2017-12-25T11:32:40.331Z,10.21
2017-12-25T11:33:40.318Z,10.21
2017-12-25T11:34:40.334Z,10.21
2017-12-25T11:35:40.275Z,10.21
2017-12-25T11:36:40.264Z,10.21
2017-12-25T11:37:40.248Z,10.22
2017-12-25T11:38:40.233Z,10.00
2017-12-25T11:39:40.212Z,10.10
2017-12-25T11:40:40.191Z,10.03
2017-12-25T11:41:40.176Z,10.04
2017-12-25T11:42:40.167Z,9.99
2017-12-25T11:43:40.144Z,10.00
2017-12-25T11:44:40.150Z,10.06
2017-12-25T11:45:40.095Z,9.93
2017-12-25T11:46:40.082Z,9.93
2017-12-25T11:47:40.099Z,9.97
2017-12-25T11:48:40.063Z,9.89
2017-12-25T11:49:40.042Z,9.81
2017-12-25T11:50:40.014Z,9.89
2017-12-25T11:51:40.002Z,9.91
2017-12-25T11:52:39.981Z,9.86
2017-12-25T11:53:39.968Z,9.82
2017-12-25T11:54:39.946Z,9.91
2017-12-25T11:55:39.923Z,9.93
2017-12-25T11:56:39.911Z,9.89
2017-12-25T11:57:39.905Z,9.89
2017-12-25T11:58:39.879Z,9.91
2017-12-25T11:59:39.849Z,9.86
2017-12-25T12:00:39.847Z,9.91
2017-12-25T12:01:39.823Z,9.81
2017-12-25T12:02:39.797Z,9.96
2017-12-25T12:03:39.810Z,9.79
2017-12-25T12:04:39.772Z,9.83
2017-12-25T12:05:39.752Z,9.85
2017-12-25T12:06:39.730Z,9.85
2017-12-25T12:07:39.701Z,9.89
2017-12-25T12:08:39.693Z,9.86
2017-12-25T12:09:39.699Z,9.86
2017-12-25T12:10:39.650Z,9.86
2017-12-25T12:11:39.631Z,9.86
2017-12-25T12:12:39.629Z,9.89
2017-12-25T12:13:39.627Z,9.83
2017-12-25T12:14:39.621Z,9.91
2017-12-25T12:15:39.569Z,9.93
2017-12-25T12:16:39.547Z,9.89
2017-12-25T12:17:39.550Z,9.88
2017-12-25T12:18:39.504Z,9.81
2017-12-25T12:19:39.489Z,9.93
2017-12-25T12:20:39.490Z,9.88
2017-12-25T12:21:39.470Z,9.86
2017-12-25T12:22:39.442Z,9.81
2017-12-25T12:23:39.430Z,9.85
2017-12-25T12:24:39.427Z,9.86
2017-12-25T12:25:39.392Z,9.86
2017-12-25T12:26:39.364Z,9.82
2017-12-25T12:27:39.348Z,9.86
2017-12-25T12:28:39.354Z,9.81
2017-12-25T12:29:39.319Z,9.91
2017-12-25T12:30:39.307Z,9.86
2017-12-25T12:31:39.272Z,9.89
2017-12-25T12:32:39.275Z,9.85
2017-12-25T12:33:39.260Z,9.83
2017-12-25T12:34:39.230Z,9.81
2017-12-25T12:35:39.196Z,9.82
2017-12-25T12:36:39.185Z,9.86
2017-12-25T12:37:39.206Z,9.82
2017-12-25T12:38:39.185Z,9.88
2017-12-25T12:39:39.157Z,9.83
2017-12-25T12:40:39.128Z,9.85
2017-12-25T12:41:39.097Z,9.85
2017-12-25T12:42:39.110Z,9.89
2017-12-25T12:43:39.075Z,9.93
2017-12-25T12:44:39.066Z,9.86
2017-12-25T12:45:39.034Z,9.88
2017-12-25T12:46:39.028Z,9.91
2017-12-25T12:47:38.987Z,9.86
2017-12-25T12:48:38.972Z,9.83
2017-12-25T12:49:38.951Z,9.97
2017-12-25T12:50:38.943Z,9.81
2017-12-25T12:51:38.937Z,9.81
2017-12-25T12:52:38.900Z,9.89
2017-12-25T12:53:38.882Z,9.83
2017-12-25T12:54:38.893Z,9.79
2017-12-25T12:55:38.843Z,9.85
2017-12-25T12:56:38.842Z,9.82
2017-12-25T12:57:38.840Z,9.93
2017-12-25T12:58:38.812Z,9.88
2017-12-25T12:59:38.789Z,9.83
2017-12-25T13:00:38.762Z,9.78
2017-12-25T13:01:38.734Z,9.83
2017-12-25T13:02:38.729Z,9.81
2017-12-25T13:03:38.721Z,9.89
2017-12-25T13:04:38.746Z,9.94
2017-12-25T13:05:38.662Z,9.85
2017-12-25T13:06:38.667Z,9.82
2017-12-25T13:07:38.658Z,9.89
2017-12-25T13:08:38.650Z,9.85
2017-12-25T13:09:38.593Z,9.86
2017-12-25T13:10:38.604Z,9.86
2017-12-25T13:11:38.591Z,9.93
2017-12-25T13:12:38.533Z,9.82
2017-12-25T13:13:38.553Z,9.83
2017-12-25T13:14:38.504Z,9.85
2017-12-25T13:15:38.521Z,9.79
2017-12-25T13:16:38.492Z,9.76